»·PEaware :: UAL414 KABQ-KSFO

UAL414 :: KABQ-KSFO

FLIGHT INFORMATION

Flight Status: Arrived
Operator:
United Airlines
More flights by this operator :: More flights under this callsign
Pilot: Joshua V. (18904)
Aircraft: BOEING 737-900
(B739)
More flights by this aircraft type
Origin: KABQ Albuquerque Intl Sunport
United States
Destination: KSFO San Francisco Intl
United States
More flights between these airports :: More routes between these airports
Route: RDRNR3 GUP J72 BLD J92 LIDAT RUSME DYAMD5
File this flight plan on PilotEdge
Remarks:
Altitude:
(Current/Filed)
34,000ft
Speed:
(Current/Filed)
462kts
Departed: 07-Jan-22 07:21 PM
Arrived: 07-Jan-22 09:33 PM
Distance/Time
Traveled:
777nm/2:12
Distance/Time
To Go:
Arrived

Flight Plot

Page will automatically refresh every two minutes.

Flight plan parsing failed; only flown route is shown


Map Options




Map Legend


Flown Route
Filed Route
Departure Airport
Arrival Airport
Navaid (VOR, NDB)
Fix

Horizontal Profiles

Position Reports

Time Latitude Longitude Heading Altitude Ground
Speed
07-Jan-22 18:54 35.046852 -106.615893 5 5316ft 0kts
07-Jan-22 18:55 35.046852 -106.615893 5 5316ft 0kts
07-Jan-22 18:56 35.046852 -106.615893 5 5316ft 0kts
07-Jan-22 18:57 35.046852 -106.615893 5 5316ft 0kts
07-Jan-22 18:58 35.046852 -106.615893 5 5316ft 0kts
07-Jan-22 18:59 35.046852 -106.615893 5 5316ft 0kts
07-Jan-22 19:00 35.046852 -106.615893 5 5316ft 0kts
07-Jan-22 19:01 35.046852 -106.615893 5 5316ft 0kts
07-Jan-22 19:02 35.046852 -106.615893 5 5316ft 0kts
07-Jan-22 19:03 35.046852 -106.615893 5 5316ft 0kts
07-Jan-22 19:04 35.046852 -106.615893 5 5316ft 0kts
07-Jan-22 19:05 35.046852 -106.615893 5 5316ft 0kts
07-Jan-22 19:06 35.046852 -106.615893 5 5316ft 0kts
07-Jan-22 19:07 35.046852 -106.615893 5 5316ft 0kts
07-Jan-22 19:08 35.046852 -106.615893 5 5316ft 0kts
07-Jan-22 19:09 35.046852 -106.615893 5 5316ft 0kts
07-Jan-22 19:10 35.046852 -106.615893 5 5316ft 0kts
07-Jan-22 19:11 35.046464 -106.615936 4 5316ft 2kts
07-Jan-22 19:12 35.046014 -106.615680 290 5316ft 1kts
07-Jan-22 19:13 35.045992 -106.615587 285 5317ft 0kts
07-Jan-22 19:14 35.045992 -106.615587 285 5317ft 0kts
07-Jan-22 19:15 35.045992 -106.615587 285 5317ft 0kts
07-Jan-22 19:16 35.045820 -106.616173 231 5316ft 3kts
07-Jan-22 19:17 35.045558 -106.617476 268 5316ft 6kts
07-Jan-22 19:18 35.045580 -106.620197 270 5309ft 8kts
07-Jan-22 19:19 35.044366 -106.621127 99 5304ft 6kts
07-Jan-22 19:20 35.044340 -106.619499 90 5312ft 42kts
07-Jan-22 19:21 35.044412 -106.573735 87 5729ft 185kts
07-Jan-22 19:22 35.061507 -106.514659 10 6854ft 245kts
07-Jan-22 19:23 35.097298 -106.578232 260 8631ft 286kts
07-Jan-22 19:24 35.092077 -106.677713 268 10623ft 320kts
07-Jan-22 19:25 35.096992 -106.787213 281 13445ft 330kts
07-Jan-22 19:26 35.116802 -106.898942 280 16115ft 344kts
07-Jan-22 19:27 35.133714 -107.015874 277 18532ft 358kts
07-Jan-22 19:28 35.149356 -107.138633 278 20715ft 373kts
07-Jan-22 19:29 35.167503 -107.265302 279 22746ft 386kts
07-Jan-22 19:30 35.188631 -107.396134 280 24592ft 398kts
07-Jan-22 19:31 35.210252 -107.530153 280 26381ft 407kts
07-Jan-22 19:32 35.231865 -107.665147 279 28408ft 402kts
07-Jan-22 19:33 35.253008 -107.798526 279 30183ft 397kts
07-Jan-22 19:34 35.273765 -107.930211 279 31709ft 392kts
07-Jan-22 19:35 35.294098 -108.060139 278 32884ft 390kts
07-Jan-22 19:36 35.314932 -108.194429 278 33097ft 412kts
07-Jan-22 19:37 35.336657 -108.334605 279 33767ft 422kts
07-Jan-22 19:38 35.369394 -108.472767 285 34027ft 422kts
07-Jan-22 19:39 35.405918 -108.608932 285 34025ft 422kts
07-Jan-22 19:40 35.442357 -108.745714 285 34023ft 421kts
07-Jan-22 19:41 35.473027 -108.883499 275 34019ft 418kts
07-Jan-22 19:42 35.482963 -109.025415 272 34020ft 417kts
07-Jan-22 19:43 35.490571 -109.167505 272 34018ft 417kts
07-Jan-22 19:44 35.497561 -109.309236 272 34018ft 416kts
07-Jan-22 19:45 35.504280 -109.451051 272 34018ft 416kts
07-Jan-22 19:46 35.510795 -109.592601 272 34018ft 416kts
07-Jan-22 19:47 35.517081 -109.733744 271 34018ft 415kts
07-Jan-22 19:48 35.523207 -109.875224 271 34018ft 415kts
07-Jan-22 19:49 35.529184 -110.016321 271 34006ft 415kts
07-Jan-22 19:50 35.535026 -110.157972 271 33984ft 415kts
07-Jan-22 19:51 35.540687 -110.299247 271 33981ft 415kts
07-Jan-22 19:52 35.546196 -110.440853 271 33981ft 416kts
07-Jan-22 19:53 35.551540 -110.582481 271 33981ft 416kts
07-Jan-22 19:54 35.556694 -110.724378 271 33981ft 417kts
07-Jan-22 19:55 35.561676 -110.866581 271 33981ft 418kts
07-Jan-22 19:56 35.566550 -111.009498 271 33990ft 419kts
07-Jan-22 19:57 35.571267 -111.152521 271 33999ft 420kts
07-Jan-22 19:58 35.575822 -111.295702 271 33999ft 421kts
07-Jan-22 19:59 35.580221 -111.439329 271 33999ft 422kts
07-Jan-22 20:00 35.583864 -111.582835 270 34000ft 422kts
07-Jan-22 20:01 35.586667 -111.726935 270 33999ft 422kts
07-Jan-22 20:02 35.589343 -111.871717 270 33999ft 423kts
07-Jan-22 20:03 35.593694 -112.015680 271 33994ft 423kts
07-Jan-22 20:04 35.598196 -112.160052 271 33990ft 423kts
07-Jan-22 20:05 35.602477 -112.304453 271 33990ft 422kts
07-Jan-22 20:06 35.606227 -112.448339 270 33990ft 422kts
07-Jan-22 20:07 35.609191 -112.591831 270 33990ft 420kts
07-Jan-22 20:08 35.611975 -112.734996 270 33990ft 419kts
07-Jan-22 20:09 35.614592 -112.877929 270 33982ft 418kts
07-Jan-22 20:10 35.617064 -113.020469 269 33959ft 417kts
07-Jan-22 20:11 35.619398 -113.162505 268 33954ft 412kts
07-Jan-22 20:12 35.621523 -113.302337 268 33954ft 410kts
07-Jan-22 20:13 35.623441 -113.441759 268 33954ft 409kts
07-Jan-22 20:14 35.636309 -113.580435 282 33956ft 415kts
07-Jan-22 20:15 35.673749 -113.715116 284 33954ft 416kts
07-Jan-22 20:16 35.712019 -113.849222 284 33954ft 416kts
07-Jan-22 20:17 35.750237 -113.983671 284 33954ft 417kts
07-Jan-22 20:18 35.788229 -114.117928 284 33919ft 415kts
07-Jan-22 20:19 35.826094 -114.252412 284 33873ft 416kts
07-Jan-22 20:20 35.863812 -114.387015 284 33872ft 416kts
07-Jan-22 20:21 35.901243 -114.521250 284 33879ft 415kts
07-Jan-22 20:22 35.938597 -114.655875 283 33886ft 415kts
07-Jan-22 20:23 35.975839 -114.791015 283 33888ft 415kts
07-Jan-22 20:24 36.022601 -114.921912 290 33888ft 417kts
07-Jan-22 20:25 36.076984 -115.048205 291 33882ft 419kts
07-Jan-22 20:26 36.132120 -115.175052 291 33867ft 418kts
07-Jan-22 20:27 36.187020 -115.301498 291 33863ft 419kts
07-Jan-22 20:28 36.241914 -115.428313 291 33862ft 419kts
07-Jan-22 20:29 36.296758 -115.555475 291 33862ft 419kts
07-Jan-22 20:30 36.351455 -115.682811 290 33862ft 419kts
07-Jan-22 20:31 36.406097 -115.810622 290 33862ft 420kts
07-Jan-22 20:32 36.460559 -115.938391 290 33862ft 419kts
07-Jan-22 20:33 36.514760 -116.066028 290 33862ft 418kts
07-Jan-22 20:34 36.568712 -116.193551 290 33858ft 416kts
07-Jan-22 20:35 36.622156 -116.320387 290 33854ft 415kts
07-Jan-22 20:36 36.675571 -116.447636 289 33853ft 414kts
07-Jan-22 20:37 36.728624 -116.574501 289 33853ft 413kts
07-Jan-22 20:38 36.781766 -116.700630 292 33851ft 413kts
07-Jan-22 20:39 36.866995 -116.803251 316 33853ft 446kts
07-Jan-22 20:40 36.969717 -116.889168 316 33853ft 444kts
07-Jan-22 20:41 37.072008 -116.974994 316 33859ft 443kts
07-Jan-22 20:42 37.173850 -117.060788 315 33871ft 442kts
07-Jan-22 20:43 37.275424 -117.146657 315 33888ft 441kts
07-Jan-22 20:44 37.376461 -117.232825 312 33888ft 435kts
07-Jan-22 20:45 37.447646 -117.344776 283 33892ft 396kts
07-Jan-22 20:46 37.482401 -117.474537 279 33889ft 390kts
07-Jan-22 20:47 37.500716 -117.606750 270 33889ft 381kts
07-Jan-22 20:48 37.512109 -117.738991 269 33890ft 379kts
07-Jan-22 20:49 37.522850 -117.870654 269 33890ft 378kts
07-Jan-22 20:50 37.533408 -118.002515 269 33890ft 379kts
07-Jan-22 20:51 37.543797 -118.134077 269 33890ft 377kts
07-Jan-22 20:52 37.553994 -118.265239 269 33890ft 377kts
07-Jan-22 20:53 37.564076 -118.396817 269 33890ft 378kts
07-Jan-22 20:54 37.574054 -118.528849 269 33890ft 378kts
07-Jan-22 20:55 37.583833 -118.660308 269 33891ft 378kts
07-Jan-22 20:56 37.593355 -118.792007 269 33894ft 376kts
07-Jan-22 20:57 37.602776 -118.923274 269 33943ft 377kts
07-Jan-22 20:58 37.612116 -119.054804 269 33997ft 375kts
07-Jan-22 20:59 37.621270 -119.185759 269 33999ft 374kts
07-Jan-22 21:00 37.630233 -119.316114 269 33999ft 373kts
07-Jan-22 21:01 37.639036 -119.446171 269 33999ft 372kts
07-Jan-22 21:02 37.647682 -119.576035 269 33999ft 370kts
07-Jan-22 21:04 37.656082 -119.705250 268 33999ft 369kts
07-Jan-22 21:05 37.664278 -119.834458 268 34000ft 368kts
07-Jan-22 21:06 37.672393 -119.963160 269 34000ft 368kts
07-Jan-22 21:07 37.680387 -120.091901 269 34014ft 368kts
07-Jan-22 21:08 37.688249 -120.220289 269 33707ft 359kts
07-Jan-22 21:09 37.695685 -120.343756 269 32665ft 343kts
07-Jan-22 21:10 37.690679 -120.465862 259 30275ft 349kts
07-Jan-22 21:11 37.674857 -120.583956 259 28309ft 342kts
07-Jan-22 21:12 37.659113 -120.698509 259 26351ft 327kts
07-Jan-22 21:13 37.647624 -120.810160 262 24450ft 312kts
07-Jan-22 21:14 37.637314 -120.919043 263 22597ft 315kts
07-Jan-22 21:15 37.624502 -121.028140 261 21046ft 312kts
07-Jan-22 21:16 37.609917 -121.135839 262 18634ft 308kts
07-Jan-22 21:17 37.595528 -121.242497 262 16657ft 308kts
07-Jan-22 21:18 37.582738 -121.349617 264 14724ft 308kts
07-Jan-22 21:19 37.570622 -121.454948 264 12809ft 303kts
07-Jan-22 21:20 37.558404 -121.559973 264 10884ft 300kts
07-Jan-22 21:21 37.543240 -121.656045 256 10065ft 271kts
07-Jan-22 21:22 37.522304 -121.744132 255 8890ft 258kts
07-Jan-22 21:23 37.501723 -121.829957 255 7685ft 250kts
07-Jan-22 21:24 37.481031 -121.912680 254 6988ft 249kts
07-Jan-22 21:25 37.461979 -121.994054 274 6029ft 238kts
07-Jan-22 21:26 37.488855 -122.067700 300 4939ft 235kts
07-Jan-22 21:26 37.514246 -122.126854 297 3981ft 209kts
07-Jan-22 21:27 37.540196 -122.188336 296 2960ft 184kts
07-Jan-22 21:29 37.565821 -122.249902 295 1940ft 167kts
07-Jan-22 21:30 37.585768 -122.296620 298 1183ft 142kts
07-Jan-22 21:30 37.600841 -122.332751 297 484ft 140kts
07-Jan-22 21:31 37.618241 -122.374046 298 19ft 83kts
07-Jan-22 21:32 37.617753 -122.379489 165 19ft 11kts
07-Jan-22 21:34 37.616773 -122.380524 297 18ft 0kts
07-Jan-22 21:34 37.616773 -122.380524 297 18ft 0kts
07-Jan-22 21:35 37.616773 -122.380524 297 18ft 0kts

Navigation Log

Ident Type
Flight plan parsing failed, navigation log unavailable